sensor_id;sensor_type;location;lat;lon;timestamp;P1;durP1;ratioP1;P2;durP2;ratioP2
83632;SDS011;73595;53.084;6.696;2023-12-14T00:02:16;11.38;;;6.50;;
83632;SDS011;73595;53.084;6.696;2023-12-14T00:04:43;11.07;;;6.03;;
83632;SDS011;73595;53.084;6.696;2023-12-14T00:07:08;13.32;;;6.03;;
83632;SDS011;73595;53.084;6.696;2023-12-14T00:09:35;10.23;;;6.25;;
83632;SDS011;73595;53.084;6.696;2023-12-14T00:12:01;9.25;;;5.60;;
83632;SDS011;73595;53.084;6.696;2023-12-14T00:14:28;12.93;;;6.10;;
83632;SDS011;73595;53.084;6.696;2023-12-14T00:16:54;10.43;;;5.80;;
83632;SDS011;73595;53.084;6.696;2023-12-14T00:19:20;10.13;;;5.90;;
83632;SDS011;73595;53.084;6.696;2023-12-14T00:21:48;13.95;;;5.97;;
83632;SDS011;73595;53.084;6.696;2023-12-14T00:24:14;9.38;;;5.82;;
83632;SDS011;73595;53.084;6.696;2023-12-14T00:26:42;11.43;;;6.30;;
83632;SDS011;73595;53.084;6.696;2023-12-14T00:29:07;10.18;;;6.63;;
83632;SDS011;73595;53.084;6.696;2023-12-14T00:31:33;14.38;;;6.32;;
83632;SDS011;73595;53.084;6.696;2023-12-14T00:33:58;10.65;;;6.22;;
83632;SDS011;73595;53.084;6.696;2023-12-14T00:36:24;10.90;;;6.10;;
83632;SDS011;73595;53.084;6.696;2023-12-14T00:38:49;10.57;;;5.97;;
83632;SDS011;73595;53.084;6.696;2023-12-14T00:41:15;9.25;;;5.30;;
83632;SDS011;73595;53.084;6.696;2023-12-14T00:43:40;7.60;;;5.13;;
83632;SDS011;73595;53.084;6.696;2023-12-14T00:46:06;6.72;;;4.82;;
83632;SDS011;73595;53.084;6.696;2023-12-14T00:48:34;8.00;;;5.05;;
83632;SDS011;73595;53.084;6.696;2023-12-14T00:51:01;7.32;;;5.05;;
83632;SDS011;73595;53.084;6.696;2023-12-14T00:53:26;6.72;;;4.63;;
83632;SDS011;73595;53.084;6.696;2023-12-14T00:55:51;8.80;;;4.93;;
83632;SDS011;73595;53.084;6.696;2023-12-14T00:58:17;9.70;;;5.28;;
83632;SDS011;73595;53.084;6.696;2023-12-14T01:00:45;9.20;;;5.65;;
83632;SDS011;73595;53.084;6.696;2023-12-14T01:03:13;6.53;;;4.10;;
83632;SDS011;73595;53.084;6.696;2023-12-14T01:05:40;8.40;;;4.65;;
83632;SDS011;73595;53.084;6.696;2023-12-14T01:08:09;8.85;;;4.93;;
83632;SDS011;73595;53.084;6.696;2023-12-14T01:10:36;8.20;;;4.63;;
83632;SDS011;73595;53.084;6.696;2023-12-14T01:13:02;8.02;;;5.22;;
83632;SDS011;73595;53.084;6.696;2023-12-14T01:15:29;10.55;;;5.47;;
83632;SDS011;73595;53.084;6.696;2023-12-14T01:17:57;8.60;;;5.30;;
83632;SDS011;73595;53.084;6.696;2023-12-14T01:20:22;9.77;;;5.75;;
83632;SDS011;73595;53.084;6.696;2023-12-14T01:22:49;11.27;;;5.55;;
83632;SDS011;73595;53.084;6.696;2023-12-14T01:25:14;10.30;;;5.47;;
83632;SDS011;73595;53.084;6.696;2023-12-14T01:27:41;12.68;;;6.05;;
83632;SDS011;73595;53.084;6.696;2023-12-14T01:30:08;10.98;;;6.75;;
83632;SDS011;73595;53.084;6.696;2023-12-14T01:32:34;10.82;;;6.03;;
83632;SDS011;73595;53.084;6.696;2023-12-14T01:35:01;10.13;;;6.25;;
83632;SDS011;73595;53.084;6.696;2023-12-14T01:37:26;12.20;;;7.15;;
83632;SDS011;73595;53.084;6.696;2023-12-14T01:39:52;14.93;;;6.60;;
83632;SDS011;73595;53.084;6.696;2023-12-14T01:42:17;12.75;;;7.30;;
83632;SDS011;73595;53.084;6.696;2023-12-14T01:44:44;12.20;;;7.47;;
83632;SDS011;73595;53.084;6.696;2023-12-14T01:47:10;12.73;;;6.85;;
83632;SDS011;73595;53.084;6.696;2023-12-14T01:49:36;11.05;;;6.45;;
83632;SDS011;73595;53.084;6.696;2023-12-14T01:52:02;11.95;;;7.13;;
83632;SDS011;73595;53.084;6.696;2023-12-14T01:54:27;12.10;;;7.10;;
83632;SDS011;73595;53.084;6.696;2023-12-14T01:56:53;16.58;;;7.03;;
83632;SDS011;73595;53.084;6.696;2023-12-14T01:59:19;13.02;;;7.47;;
83632;SDS011;73595;53.084;6.696;2023-12-14T02:04:27;13.13;;;7.55;;
83632;SDS011;73595;53.084;6.696;2023-12-14T02:06:52;11.30;;;7.28;;
83632;SDS011;73595;53.084;6.696;2023-12-14T02:09:19;15.10;;;6.93;;
83632;SDS011;73595;53.084;6.696;2023-12-14T02:11:45;13.38;;;7.65;;
83632;SDS011;73595;53.084;6.696;2023-12-14T02:14:12;14.07;;;7.90;;
83632;SDS011;73595;53.084;6.696;2023-12-14T02:16:37;16.13;;;8.63;;
83632;SDS011;73595;53.084;6.696;2023-12-14T02:19:05;13.77;;;7.43;;
83632;SDS011;73595;53.084;6.696;2023-12-14T02:21:31;15.38;;;7.80;;
83632;SDS011;73595;53.084;6.696;2023-12-14T02:23:56;17.23;;;8.73;;
83632;SDS011;73595;53.084;6.696;2023-12-14T02:26:22;13.35;;;7.88;;
83632;SDS011;73595;53.084;6.696;2023-12-14T02:28:47;18.88;;;8.50;;
83632;SDS011;73595;53.084;6.696;2023-12-14T02:31:14;15.48;;;8.30;;
83632;SDS011;73595;53.084;6.696;2023-12-14T02:33:40;19.73;;;9.55;;
83632;SDS011;73595;53.084;6.696;2023-12-14T02:36:06;16.67;;;8.57;;
83632;SDS011;73595;53.084;6.696;2023-12-14T02:38:31;18.88;;;8.93;;
83632;SDS011;73595;53.084;6.696;2023-12-14T02:40:57;19.05;;;8.38;;
83632;SDS011;73595;53.084;6.696;2023-12-14T02:43:22;18.50;;;9.40;;
83632;SDS011;73595;53.084;6.696;2023-12-14T02:45:50;14.55;;;8.05;;
83632;SDS011;73595;53.084;6.696;2023-12-14T02:48:16;18.35;;;8.60;;
83632;SDS011;73595;53.084;6.696;2023-12-14T02:50:43;20.25;;;8.93;;
83632;SDS011;73595;53.084;6.696;2023-12-14T02:53:08;17.70;;;9.02;;
83632;SDS011;73595;53.084;6.696;2023-12-14T02:55:33;15.48;;;8.40;;
83632;SDS011;73595;53.084;6.696;2023-12-14T02:57:59;15.45;;;8.38;;
83632;SDS011;73595;53.084;6.696;2023-12-14T03:00:25;20.27;;;9.05;;
83632;SDS011;73595;53.084;6.696;2023-12-14T03:02:51;18.23;;;9.43;;
83632;SDS011;73595;53.084;6.696;2023-12-14T03:05:17;16.17;;;9.13;;
83632;SDS011;73595;53.084;6.696;2023-12-14T03:07:42;11.27;;;7.82;;
83632;SDS011;73595;53.084;6.696;2023-12-14T03:10:07;15.57;;;8.50;;
83632;SDS011;73595;53.084;6.696;2023-12-14T03:12:33;16.83;;;8.23;;
83632;SDS011;73595;53.084;6.696;2023-12-14T03:14:58;13.93;;;7.97;;
83632;SDS011;73595;53.084;6.696;2023-12-14T03:17:24;18.58;;;9.02;;
83632;SDS011;73595;53.084;6.696;2023-12-14T03:19:51;15.90;;;7.93;;
83632;SDS011;73595;53.084;6.696;2023-12-14T03:22:16;18.58;;;8.57;;
83632;SDS011;73595;53.084;6.696;2023-12-14T03:24:42;13.55;;;7.72;;
83632;SDS011;73595;53.084;6.696;2023-12-14T03:27:12;18.85;;;8.52;;
83632;SDS011;73595;53.084;6.696;2023-12-14T03:29:39;19.27;;;8.23;;
83632;SDS011;73595;53.084;6.696;2023-12-14T03:32:04;18.55;;;8.50;;
83632;SDS011;73595;53.084;6.696;2023-12-14T03:34:30;19.73;;;9.10;;
83632;SDS011;73595;53.084;6.696;2023-12-14T03:36:58;14.70;;;8.00;;
83632;SDS011;73595;53.084;6.696;2023-12-14T03:39:24;22.52;;;8.63;;
83632;SDS011;73595;53.084;6.696;2023-12-14T03:41:50;17.95;;;8.10;;
83632;SDS011;73595;53.084;6.696;2023-12-14T03:44:18;17.10;;;8.20;;
83632;SDS011;73595;53.084;6.696;2023-12-14T03:46:44;18.13;;;8.38;;
83632;SDS011;73595;53.084;6.696;2023-12-14T03:49:09;17.45;;;8.82;;
83632;SDS011;73595;53.084;6.696;2023-12-14T03:51:37;17.65;;;8.07;;
83632;SDS011;73595;53.084;6.696;2023-12-14T03:54:04;16.80;;;8.25;;
83632;SDS011;73595;53.084;6.696;2023-12-14T03:56:29;17.80;;;7.80;;
83632;SDS011;73595;53.084;6.696;2023-12-14T03:58:57;17.55;;;8.82;;
83632;SDS011;73595;53.084;6.696;2023-12-14T04:01:25;16.25;;;8.38;;
83632;SDS011;73595;53.084;6.696;2023-12-14T04:03:51;17.75;;;8.40;;
83632;SDS011;73595;53.084;6.696;2023-12-14T04:06:17;25.70;;;8.15;;
83632;SDS011;73595;53.084;6.696;2023-12-14T04:08:43;16.52;;;7.47;;
83632;SDS011;73595;53.084;6.696;2023-12-14T04:11:09;21.02;;;9.23;;
83632;SDS011;73595;53.084;6.696;2023-12-14T04:13:34;20.40;;;8.68;;
83632;SDS011;73595;53.084;6.696;2023-12-14T04:16:01;19.63;;;8.68;;
83632;SDS011;73595;53.084;6.696;2023-12-14T04:18:28;18.20;;;8.45;;
83632;SDS011;73595;53.084;6.696;2023-12-14T04:20:55;19.23;;;9.15;;
83632;SDS011;73595;53.084;6.696;2023-12-14T04:23:24;19.73;;;9.00;;
83632;SDS011;73595;53.084;6.696;2023-12-14T04:25:52;19.98;;;9.38;;
83632;SDS011;73595;53.084;6.696;2023-12-14T04:28:18;17.88;;;8.73;;
83632;SDS011;73595;53.084;6.696;2023-12-14T04:30:43;21.88;;;9.10;;
83632;SDS011;73595;53.084;6.696;2023-12-14T04:33:10;20.80;;;9.40;;
83632;SDS011;73595;53.084;6.696;2023-12-14T04:35:36;17.45;;;8.30;;
83632;SDS011;73595;53.084;6.696;2023-12-14T04:38:02;17.33;;;8.57;;
83632;SDS011;73595;53.084;6.696;2023-12-14T04:40:27;21.10;;;9.38;;
83632;SDS011;73595;53.084;6.696;2023-12-14T04:42:52;20.33;;;9.07;;
83632;SDS011;73595;53.084;6.696;2023-12-14T04:45:22;17.88;;;9.18;;
83632;SDS011;73595;53.084;6.696;2023-12-14T04:47:47;19.85;;;8.52;;
83632;SDS011;73595;53.084;6.696;2023-12-14T04:50:13;21.05;;;9.18;;
83632;SDS011;73595;53.084;6.696;2023-12-14T04:52:40;16.83;;;8.38;;
83632;SDS011;73595;53.084;6.696;2023-12-14T04:55:10;17.48;;;8.82;;
83632;SDS011;73595;53.084;6.696;2023-12-14T04:57:35;21.05;;;9.02;;
83632;SDS011;73595;53.084;6.696;2023-12-14T05:00:01;19.70;;;9.50;;
83632;SDS011;73595;53.084;6.696;2023-12-14T05:02:27;19.00;;;8.98;;
83632;SDS011;73595;53.084;6.696;2023-12-14T05:04:52;22.23;;;9.10;;
83632;SDS011;73595;53.084;6.696;2023-12-14T05:07:18;17.25;;;8.88;;
83632;SDS011;73595;53.084;6.696;2023-12-14T05:09:43;17.52;;;8.77;;
83632;SDS011;73595;53.084;6.696;2023-12-14T05:12:09;18.98;;;8.63;;
83632;SDS011;73595;53.084;6.696;2023-12-14T05:14:34;16.92;;;8.45;;
83632;SDS011;73595;53.084;6.696;2023-12-14T05:17:00;17.50;;;8.88;;
83632;SDS011;73595;53.084;6.696;2023-12-14T05:19:25;20.38;;;9.85;;
83632;SDS011;73595;53.084;6.696;2023-12-14T05:21:50;14.77;;;9.07;;
83632;SDS011;73595;53.084;6.696;2023-12-14T05:24:16;19.33;;;8.48;;
83632;SDS011;73595;53.084;6.696;2023-12-14T05:26:41;18.30;;;8.73;;
83632;SDS011;73595;53.084;6.696;2023-12-14T05:29:07;15.73;;;8.30;;
83632;SDS011;73595;53.084;6.696;2023-12-14T05:31:34;14.98;;;8.50;;
83632;SDS011;73595;53.084;6.696;2023-12-14T05:34:00;18.25;;;8.40;;
83632;SDS011;73595;53.084;6.696;2023-12-14T05:36:27;15.13;;;8.55;;
83632;SDS011;73595;53.084;6.696;2023-12-14T05:38:52;19.30;;;8.75;;
83632;SDS011;73595;53.084;6.696;2023-12-14T05:41:18;13.73;;;8.50;;
83632;SDS011;73595;53.084;6.696;2023-12-14T05:43:43;18.77;;;8.20;;
83632;SDS011;73595;53.084;6.696;2023-12-14T05:46:19;14.63;;;7.57;;
83632;SDS011;73595;53.084;6.696;2023-12-14T05:49:04;15.75;;;8.77;;
83632;SDS011;73595;53.084;6.696;2023-12-14T05:51:29;17.60;;;8.82;;
83632;SDS011;73595;53.084;6.696;2023-12-14T05:54:01;24.25;;;10.45;;
83632;SDS011;73595;53.084;6.696;2023-12-14T05:56:28;17.90;;;9.35;;
83632;SDS011;73595;53.084;6.696;2023-12-14T05:59:52;17.45;;;9.15;;
83632;SDS011;73595;53.084;6.696;2023-12-14T06:02:37;16.83;;;8.82;;
83632;SDS011;73595;53.084;6.696;2023-12-14T06:05:03;17.60;;;9.10;;
83632;SDS011;73595;53.084;6.696;2023-12-14T06:07:31;18.33;;;8.77;;
83632;SDS011;73595;53.084;6.696;2023-12-14T06:09:58;17.38;;;8.45;;
83632;SDS011;73595;53.084;6.696;2023-12-14T06:12:23;17.65;;;9.07;;
83632;SDS011;73595;53.084;6.696;2023-12-14T06:15:07;14.13;;;8.25;;
83632;SDS011;73595;53.084;6.696;2023-12-14T06:17:33;17.40;;;8.55;;
83632;SDS011;73595;53.084;6.696;2023-12-14T06:20:06;20.08;;;9.57;;
83632;SDS011;73595;53.084;6.696;2023-12-14T06:22:38;20.95;;;9.13;;
83632;SDS011;73595;53.084;6.696;2023-12-14T06:25:03;18.60;;;8.98;;
83632;SDS011;73595;53.084;6.696;2023-12-14T06:27:29;17.60;;;9.30;;
83632;SDS011;73595;53.084;6.696;2023-12-14T06:29:56;21.48;;;9.02;;
83632;SDS011;73595;53.084;6.696;2023-12-14T06:32:21;21.30;;;9.73;;
83632;SDS011;73595;53.084;6.696;2023-12-14T06:34:47;23.73;;;9.93;;
83632;SDS011;73595;53.084;6.696;2023-12-14T06:37:16;19.92;;;9.80;;
83632;SDS011;73595;53.084;6.696;2023-12-14T06:39:41;19.38;;;9.40;;
83632;SDS011;73595;53.084;6.696;2023-12-14T06:42:07;21.27;;;9.70;;
83632;SDS011;73595;53.084;6.696;2023-12-14T06:44:38;22.90;;;9.43;;
83632;SDS011;73595;53.084;6.696;2023-12-14T06:47:05;19.50;;;9.90;;
83632;SDS011;73595;53.084;6.696;2023-12-14T06:49:31;19.63;;;10.05;;
83632;SDS011;73595;53.084;6.696;2023-12-14T06:51:56;22.77;;;9.85;;
83632;SDS011;73595;53.084;6.696;2023-12-14T06:54:23;21.50;;;9.73;;
83632;SDS011;73595;53.084;6.696;2023-12-14T06:56:51;19.88;;;9.77;;
83632;SDS011;73595;53.084;6.696;2023-12-14T06:59:16;20.33;;;9.98;;
83632;SDS011;73595;53.084;6.696;2023-12-14T07:01:42;21.17;;;10.38;;
83632;SDS011;73595;53.084;6.696;2023-12-14T07:04:08;24.63;;;9.05;;
83632;SDS011;73595;53.084;6.696;2023-12-14T07:06:35;24.08;;;12.00;;
83632;SDS011;73595;53.084;6.696;2023-12-14T07:09:00;22.33;;;10.45;;
83632;SDS011;73595;53.084;6.696;2023-12-14T07:11:26;24.55;;;10.45;;
83632;SDS011;73595;53.084;6.696;2023-12-14T07:13:52;22.35;;;10.13;;
83632;SDS011;73595;53.084;6.696;2023-12-14T07:16:17;23.42;;;10.15;;
83632;SDS011;73595;53.084;6.696;2023-12-14T07:18:42;23.08;;;10.27;;
83632;SDS011;73595;53.084;6.696;2023-12-14T07:21:09;27.27;;;11.48;;
83632;SDS011;73595;53.084;6.696;2023-12-14T07:23:35;26.23;;;10.75;;
83632;SDS011;73595;53.084;6.696;2023-12-14T07:26:01;22.73;;;10.57;;
83632;SDS011;73595;53.084;6.696;2023-12-14T07:28:26;21.60;;;10.52;;
83632;SDS011;73595;53.084;6.696;2023-12-14T07:30:52;26.83;;;10.50;;
83632;SDS011;73595;53.084;6.696;2023-12-14T07:33:20;26.83;;;10.63;;
83632;SDS011;73595;53.084;6.696;2023-12-14T07:35:46;26.27;;;10.80;;
83632;SDS011;73595;53.084;6.696;2023-12-14T07:38:11;24.52;;;10.95;;
83632;SDS011;73595;53.084;6.696;2023-12-14T07:40:37;22.00;;;10.60;;
83632;SDS011;73595;53.084;6.696;2023-12-14T07:43:06;26.17;;;11.77;;
83632;SDS011;73595;53.084;6.696;2023-12-14T07:45:32;26.30;;;11.60;;
83632;SDS011;73595;53.084;6.696;2023-12-14T07:47:57;26.25;;;10.88;;
83632;SDS011;73595;53.084;6.696;2023-12-14T07:50:25;25.60;;;11.50;;
83632;SDS011;73595;53.084;6.696;2023-12-14T07:52:50;27.30;;;12.15;;
83632;SDS011;73595;53.084;6.696;2023-12-14T07:55:16;31.42;;;12.02;;
83632;SDS011;73595;53.084;6.696;2023-12-14T07:57:42;26.63;;;12.02;;
83632;SDS011;73595;53.084;6.696;2023-12-14T08:00:08;30.88;;;12.25;;
83632;SDS011;73595;53.084;6.696;2023-12-14T08:02:35;27.35;;;11.48;;
83632;SDS011;73595;53.084;6.696;2023-12-14T08:05:01;24.13;;;11.40;;
83632;SDS011;73595;53.084;6.696;2023-12-14T08:07:27;26.35;;;11.70;;
83632;SDS011;73595;53.084;6.696;2023-12-14T08:09:56;28.38;;;12.68;;
83632;SDS011;73595;53.084;6.696;2023-12-14T08:12:22;27.17;;;12.15;;
83632;SDS011;73595;53.084;6.696;2023-12-14T08:14:48;25.35;;;11.80;;
83632;SDS011;73595;53.084;6.696;2023-12-14T08:17:20;27.48;;;12.23;;
83632;SDS011;73595;53.084;6.696;2023-12-14T08:19:46;28.45;;;12.73;;
83632;SDS011;73595;53.084;6.696;2023-12-14T08:22:12;26.10;;;12.18;;
83632;SDS011;73595;53.084;6.696;2023-12-14T08:24:41;26.65;;;12.43;;
83632;SDS011;73595;53.084;6.696;2023-12-14T08:27:07;27.05;;;12.77;;
83632;SDS011;73595;53.084;6.696;2023-12-14T08:29:33;24.15;;;12.02;;
83632;SDS011;73595;53.084;6.696;2023-12-14T08:32:00;34.22;;;12.80;;
83632;SDS011;73595;53.084;6.696;2023-12-14T08:34:26;23.90;;;12.15;;
83632;SDS011;73595;53.084;6.696;2023-12-14T08:36:53;23.95;;;12.20;;
83632;SDS011;73595;53.084;6.696;2023-12-14T08:39:19;28.52;;;12.48;;
83632;SDS011;73595;53.084;6.696;2023-12-14T08:41:46;28.42;;;13.13;;
83632;SDS011;73595;53.084;6.696;2023-12-14T08:44:13;21.45;;;11.85;;
83632;SDS011;73595;53.084;6.696;2023-12-14T08:46:40;35.78;;;13.55;;
83632;SDS011;73595;53.084;6.696;2023-12-14T08:49:08;33.22;;;13.43;;
83632;SDS011;73595;53.084;6.696;2023-12-14T08:51:39;30.63;;;12.43;;
83632;SDS011;73595;53.084;6.696;2023-12-14T08:54:05;24.48;;;12.25;;
83632;SDS011;73595;53.084;6.696;2023-12-14T08:56:32;28.15;;;11.90;;
83632;SDS011;73595;53.084;6.696;2023-12-14T08:58:58;31.02;;;12.50;;
83632;SDS011;73595;53.084;6.696;2023-12-14T09:01:25;28.67;;;12.70;;
83632;SDS011;73595;53.084;6.696;2023-12-14T09:03:53;25.70;;;12.70;;
83632;SDS011;73595;53.084;6.696;2023-12-14T09:06:18;28.77;;;14.13;;
83632;SDS011;73595;53.084;6.696;2023-12-14T09:08:45;26.85;;;13.13;;
83632;SDS011;73595;53.084;6.696;2023-12-14T09:11:10;25.65;;;12.38;;
83632;SDS011;73595;53.084;6.696;2023-12-14T09:13:36;27.10;;;13.73;;
83632;SDS011;73595;53.084;6.696;2023-12-14T09:16:01;29.02;;;12.85;;
83632;SDS011;73595;53.084;6.696;2023-12-14T09:18:27;30.52;;;13.77;;
83632;SDS011;73595;53.084;6.696;2023-12-14T09:20:52;32.28;;;13.77;;
83632;SDS011;73595;53.084;6.696;2023-12-14T09:23:17;28.45;;;13.98;;
83632;SDS011;73595;53.084;6.696;2023-12-14T09:25:44;28.20;;;13.30;;
83632;SDS011;73595;53.084;6.696;2023-12-14T09:28:10;30.90;;;13.70;;
83632;SDS011;73595;53.084;6.696;2023-12-14T09:30:35;29.80;;;13.90;;
83632;SDS011;73595;53.084;6.696;2023-12-14T09:33:00;31.52;;;14.20;;
83632;SDS011;73595;53.084;6.696;2023-12-14T09:35:27;27.40;;;12.95;;
83632;SDS011;73595;53.084;6.696;2023-12-14T09:37:52;28.10;;;12.68;;
83632;SDS011;73595;53.084;6.696;2023-12-14T09:40:21;24.35;;;13.25;;
83632;SDS011;73595;53.084;6.696;2023-12-14T09:42:47;27.40;;;12.63;;
83632;SDS011;73595;53.084;6.696;2023-12-14T09:45:13;26.25;;;13.23;;
83632;SDS011;73595;53.084;6.696;2023-12-14T09:47:42;26.02;;;12.90;;
83632;SDS011;73595;53.084;6.696;2023-12-14T09:50:08;36.70;;;14.88;;
83632;SDS011;73595;53.084;6.696;2023-12-14T09:52:33;27.73;;;12.60;;
83632;SDS011;73595;53.084;6.696;2023-12-14T09:54:59;30.35;;;13.68;;
83632;SDS011;73595;53.084;6.696;2023-12-14T09:57:25;28.02;;;13.55;;
83632;SDS011;73595;53.084;6.696;2023-12-14T09:59:52;34.13;;;13.95;;
83632;SDS011;73595;53.084;6.696;2023-12-14T10:02:18;30.95;;;13.23;;
83632;SDS011;73595;53.084;6.696;2023-12-14T10:04:45;32.72;;;14.25;;
83632;SDS011;73595;53.084;6.696;2023-12-14T10:07:11;27.00;;;13.65;;
83632;SDS011;73595;53.084;6.696;2023-12-14T10:09:37;35.08;;;14.23;;
83632;SDS011;73595;53.084;6.696;2023-12-14T10:12:03;27.70;;;13.32;;
83632;SDS011;73595;53.084;6.696;2023-12-14T10:14:31;27.73;;;13.43;;
83632;SDS011;73595;53.084;6.696;2023-12-14T10:16:57;31.35;;;13.45;;
83632;SDS011;73595;53.084;6.696;2023-12-14T10:19:23;29.48;;;13.38;;
83632;SDS011;73595;53.084;6.696;2023-12-14T10:21:49;29.48;;;13.50;;
83632;SDS011;73595;53.084;6.696;2023-12-14T10:24:15;25.67;;;13.18;;
83632;SDS011;73595;53.084;6.696;2023-12-14T10:26:41;31.77;;;13.73;;
83632;SDS011;73595;53.084;6.696;2023-12-14T10:29:06;27.42;;;13.50;;
83632;SDS011;73595;53.084;6.696;2023-12-14T10:31:32;30.80;;;14.93;;
83632;SDS011;73595;53.084;6.696;2023-12-14T10:34:02;28.73;;;14.48;;
83632;SDS011;73595;53.084;6.696;2023-12-14T10:36:31;33.45;;;13.88;;
83632;SDS011;73595;53.084;6.696;2023-12-14T10:38:58;36.42;;;14.18;;
83632;SDS011;73595;53.084;6.696;2023-12-14T10:41:25;27.25;;;12.98;;
83632;SDS011;73595;53.084;6.696;2023-12-14T10:43:53;26.95;;;13.05;;
83632;SDS011;73595;53.084;6.696;2023-12-14T10:46:20;27.77;;;12.43;;
83632;SDS011;73595;53.084;6.696;2023-12-14T10:48:47;26.40;;;12.68;;
83632;SDS011;73595;53.084;6.696;2023-12-14T10:51:14;25.35;;;12.65;;
83632;SDS011;73595;53.084;6.696;2023-12-14T10:53:42;30.20;;;12.73;;
83632;SDS011;73595;53.084;6.696;2023-12-14T10:56:12;24.95;;;12.50;;
83632;SDS011;73595;53.084;6.696;2023-12-14T11:01:30;25.48;;;13.05;;
83632;SDS011;73595;53.084;6.696;2023-12-14T11:03:58;32.83;;;14.05;;
83632;SDS011;73595;53.084;6.696;2023-12-14T11:08:54;32.80;;;15.73;;
83632;SDS011;73595;53.084;6.696;2023-12-14T11:11:27;27.95;;;14.27;;
83632;SDS011;73595;53.084;6.696;2023-12-14T11:13:54;29.23;;;13.63;;
83632;SDS011;73595;53.084;6.696;2023-12-14T11:16:26;24.83;;;12.35;;
83632;SDS011;73595;53.084;6.696;2023-12-14T11:24:35;25.10;;;12.70;;
83632;SDS011;73595;53.084;6.696;2023-12-14T11:27:07;31.13;;;13.25;;
83632;SDS011;73595;53.084;6.696;2023-12-14T11:29:39;27.50;;;13.38;;
83632;SDS011;73595;53.084;6.696;2023-12-14T11:32:06;24.42;;;12.77;;
83632;SDS011;73595;53.084;6.696;2023-12-14T11:34:33;25.88;;;13.43;;
83632;SDS011;73595;53.084;6.696;2023-12-14T11:36:58;29.60;;;13.75;;
83632;SDS011;73595;53.084;6.696;2023-12-14T11:39:24;28.75;;;13.48;;
83632;SDS011;73595;53.084;6.696;2023-12-14T11:42:01;30.17;;;13.25;;
83632;SDS011;73595;53.084;6.696;2023-12-14T11:44:28;30.27;;;13.65;;
83632;SDS011;73595;53.084;6.696;2023-12-14T11:46:55;25.05;;;12.75;;
83632;SDS011;73595;53.084;6.696;2023-12-14T11:49:23;25.00;;;12.15;;
83632;SDS011;73595;53.084;6.696;2023-12-14T11:51:51;28.30;;;13.30;;
83632;SDS011;73595;53.084;6.696;2023-12-14T11:54:21;23.17;;;12.68;;
83632;SDS011;73595;53.084;6.696;2023-12-14T11:56:47;25.05;;;12.95;;
83632;SDS011;73595;53.084;6.696;2023-12-14T11:59:17;27.80;;;13.05;;
83632;SDS011;73595;53.084;6.696;2023-12-14T12:02:03;27.83;;;13.32;;
83632;SDS011;73595;53.084;6.696;2023-12-14T12:04:29;29.80;;;13.95;;
83632;SDS011;73595;53.084;6.696;2023-12-14T12:07:01;27.40;;;13.32;;
83632;SDS011;73595;53.084;6.696;2023-12-14T12:12:06;21.35;;;11.48;;
83632;SDS011;73595;53.084;6.696;2023-12-14T12:14:32;23.17;;;11.13;;
83632;SDS011;73595;53.084;6.696;2023-12-14T12:16:57;24.42;;;11.82;;
83632;SDS011;73595;53.084;6.696;2023-12-14T12:19:23;20.92;;;11.32;;
83632;SDS011;73595;53.084;6.696;2023-12-14T12:21:49;24.20;;;12.30;;
83632;SDS011;73595;53.084;6.696;2023-12-14T12:24:15;21.40;;;11.77;;
83632;SDS011;73595;53.084;6.696;2023-12-14T12:26:42;20.10;;;11.25;;
83632;SDS011;73595;53.084;6.696;2023-12-14T12:29:08;25.52;;;11.82;;
83632;SDS011;73595;53.084;6.696;2023-12-14T12:31:36;23.98;;;11.55;;
83632;SDS011;73595;53.084;6.696;2023-12-14T12:34:05;23.23;;;11.32;;
83632;SDS011;73595;53.084;6.696;2023-12-14T12:36:32;24.08;;;12.57;;
83632;SDS011;73595;53.084;6.696;2023-12-14T12:38:57;30.48;;;12.27;;
83632;SDS011;73595;53.084;6.696;2023-12-14T12:41:23;25.50;;;12.65;;
83632;SDS011;73595;53.084;6.696;2023-12-14T12:43:48;23.02;;;12.13;;
83632;SDS011;73595;53.084;6.696;2023-12-14T12:46:13;22.67;;;11.57;;
83632;SDS011;73595;53.084;6.696;2023-12-14T12:48:39;24.60;;;12.18;;
83632;SDS011;73595;53.084;6.696;2023-12-14T12:51:05;23.45;;;11.85;;
83632;SDS011;73595;53.084;6.696;2023-12-14T12:53:30;21.35;;;10.80;;
83632;SDS011;73595;53.084;6.696;2023-12-14T12:55:57;24.63;;;11.75;;
83632;SDS011;73595;53.084;6.696;2023-12-14T12:58:22;23.85;;;11.32;;
83632;SDS011;73595;53.084;6.696;2023-12-14T13:00:47;21.08;;;11.00;;
83632;SDS011;73595;53.084;6.696;2023-12-14T13:03:14;23.38;;;11.07;;
83632;SDS011;73595;53.084;6.696;2023-12-14T13:05:41;27.40;;;12.35;;
83632;SDS011;73595;53.084;6.696;2023-12-14T13:08:07;22.27;;;10.95;;
83632;SDS011;73595;53.084;6.696;2023-12-14T13:10:33;24.48;;;11.10;;
83632;SDS011;73595;53.084;6.696;2023-12-14T13:12:58;20.23;;;10.63;;
83632;SDS011;73595;53.084;6.696;2023-12-14T13:15:24;23.45;;;11.27;;
83632;SDS011;73595;53.084;6.696;2023-12-14T13:17:50;22.00;;;11.65;;
83632;SDS011;73595;53.084;6.696;2023-12-14T13:20:17;20.80;;;11.00;;
83632;SDS011;73595;53.084;6.696;2023-12-14T13:22:44;24.13;;;11.20;;
83632;SDS011;73595;53.084;6.696;2023-12-14T13:25:10;26.63;;;11.68;;
83632;SDS011;73595;53.084;6.696;2023-12-14T13:27:36;22.70;;;11.45;;
83632;SDS011;73595;53.084;6.696;2023-12-14T13:30:02;21.10;;;10.52;;
83632;SDS011;73595;53.084;6.696;2023-12-14T13:32:29;24.48;;;10.52;;
83632;SDS011;73595;53.084;6.696;2023-12-14T13:34:54;23.98;;;10.88;;
83632;SDS011;73595;53.084;6.696;2023-12-14T13:37:20;21.55;;;9.93;;
83632;SDS011;73595;53.084;6.696;2023-12-14T13:39:45;20.23;;;10.38;;
83632;SDS011;73595;53.084;6.696;2023-12-14T13:42:12;21.23;;;9.57;;
83632;SDS011;73595;53.084;6.696;2023-12-14T13:44:40;21.67;;;10.40;;
83632;SDS011;73595;53.084;6.696;2023-12-14T13:47:06;21.98;;;10.85;;
83632;SDS011;73595;53.084;6.696;2023-12-14T13:49:36;20.52;;;11.00;;
83632;SDS011;73595;53.084;6.696;2023-12-14T13:52:01;23.60;;;11.13;;
83632;SDS011;73595;53.084;6.696;2023-12-14T13:54:26;17.50;;;10.27;;
83632;SDS011;73595;53.084;6.696;2023-12-14T13:56:52;17.00;;;10.32;;
83632;SDS011;73595;53.084;6.696;2023-12-14T13:59:18;17.83;;;10.25;;
83632;SDS011;73595;53.084;6.696;2023-12-14T14:01:44;20.52;;;10.95;;
83632;SDS011;73595;53.084;6.696;2023-12-14T14:04:10;17.65;;;10.80;;
83632;SDS011;73595;53.084;6.696;2023-12-14T14:06:35;19.13;;;10.13;;
83632;SDS011;73595;53.084;6.696;2023-12-14T14:09:01;18.35;;;10.52;;
83632;SDS011;73595;53.084;6.696;2023-12-14T14:11:26;17.58;;;10.30;;
83632;SDS011;73595;53.084;6.696;2023-12-14T14:13:51;20.88;;;12.10;;
83632;SDS011;73595;53.084;6.696;2023-12-14T14:16:17;20.52;;;11.45;;
83632;SDS011;73595;53.084;6.696;2023-12-14T14:18:42;21.23;;;10.30;;
83632;SDS011;73595;53.084;6.696;2023-12-14T14:21:07;18.17;;;11.02;;
83632;SDS011;73595;53.084;6.696;2023-12-14T14:23:33;21.20;;;10.88;;
83632;SDS011;73595;53.084;6.696;2023-12-14T14:25:59;20.42;;;11.43;;
83632;SDS011;73595;53.084;6.696;2023-12-14T14:28:25;25.58;;;12.13;;
83632;SDS011;73595;53.084;6.696;2023-12-14T14:30:51;19.85;;;12.07;;
83632;SDS011;73595;53.084;6.696;2023-12-14T14:33:17;15.82;;;10.52;;
83632;SDS011;73595;53.084;6.696;2023-12-14T14:35:43;19.60;;;10.88;;
83632;SDS011;73595;53.084;6.696;2023-12-14T14:38:10;15.85;;;10.10;;
83632;SDS011;73595;53.084;6.696;2023-12-14T14:40:36;22.15;;;11.27;;
83632;SDS011;73595;53.084;6.696;2023-12-14T14:43:01;21.48;;;11.63;;